createdAt,value
2023-05-24T00:01:57.091Z,19.27
2023-05-24T00:04:25.589Z,19.17
2023-05-24T00:06:55.131Z,18.05
2023-05-24T00:09:22.027Z,19.25
2023-05-24T00:11:48.895Z,18.57
2023-05-24T00:14:15.891Z,22.10
2023-05-24T00:16:42.841Z,19.63
2023-05-24T00:19:11.491Z,18.05
2023-05-24T00:21:38.503Z,20.88
2023-05-24T00:24:05.365Z,21.10
2023-05-24T00:26:32.165Z,23.02
2023-05-24T00:28:58.927Z,23.92
2023-05-24T00:31:25.704Z,20.13
2023-05-24T00:33:52.424Z,19.33
2023-05-24T00:36:19.145Z,20.57
2023-05-24T00:38:45.911Z,21.02
2023-05-24T00:41:12.592Z,17.75
2023-05-24T00:43:39.342Z,20.42
2023-05-24T00:46:24.341Z,19.70
2023-05-24T00:48:51.153Z,19.20
2023-05-24T00:51:18.068Z,17.90
2023-05-24T00:53:48.550Z,22.02
2023-05-24T00:56:15.723Z,20.80
2023-05-24T00:58:42.489Z,20.52
2023-05-24T01:01:09.349Z,17.13
2023-05-24T01:03:36.276Z,17.30
2023-05-24T01:06:04.848Z,19.38
2023-05-24T01:09:06.827Z,19.42
2023-05-24T01:11:52.138Z,20.17
2023-05-24T01:14:40.508Z,19.73
2023-05-24T01:17:20.231Z,18.55
2023-05-24T01:19:53.104Z,19.08
2023-05-24T01:22:57.251Z,19.65
2023-05-24T01:26:08.090Z,19.13
2023-05-24T01:28:35.298Z,18.93
2023-05-24T01:31:02.061Z,20.73
2023-05-24T01:33:28.871Z,20.67
2023-05-24T01:35:55.601Z,22.10
2023-05-24T01:38:22.354Z,18.88
2023-05-24T01:40:50.715Z,21.37
2023-05-24T01:43:38.248Z,19.92
2023-05-24T01:46:11.142Z,21.65
2023-05-24T01:49:08.486Z,20.65
2023-05-24T01:51:40.349Z,20.60
2023-05-24T01:54:07.169Z,20.57
2023-05-24T01:56:34.454Z,20.52
2023-05-24T01:59:01.150Z,22.08
2023-05-24T02:01:27.911Z,20.25
2023-05-24T02:03:54.951Z,22.40
2023-05-24T02:06:21.649Z,22.53
2023-05-24T02:08:48.356Z,22.60
2023-05-24T02:11:15.109Z,20.33
2023-05-24T02:13:41.788Z,24.67
2023-05-24T02:16:08.606Z,20.35
2023-05-24T02:18:35.810Z,20.63
2023-05-24T02:21:03.004Z,20.65
2023-05-24T02:23:29.735Z,20.25
2023-05-24T02:25:56.657Z,20.65
2023-05-24T02:28:23.485Z,19.60
2023-05-24T02:30:50.216Z,23.67
2023-05-24T02:33:17.033Z,19.92
2023-05-24T02:35:43.952Z,19.40
2023-05-24T02:38:10.709Z,20.02
2023-05-24T02:40:37.436Z,21.20
2023-05-24T02:43:04.144Z,21.87
2023-05-24T02:45:30.908Z,20.75
2023-05-24T02:47:57.688Z,16.75
2023-05-24T02:50:24.591Z,17.27
2023-05-24T02:52:51.780Z,18.10
2023-05-24T02:55:18.551Z,18.20
2023-05-24T02:57:45.584Z,16.85
2023-05-24T03:00:12.985Z,18.20
2023-05-24T03:02:41.313Z,18.05
2023-05-24T03:05:08.460Z,17.98
2023-05-24T03:07:35.657Z,16.67
2023-05-24T03:10:02.396Z,15.77
2023-05-24T03:12:29.136Z,16.10
2023-05-24T03:14:55.839Z,16.13
2023-05-24T03:17:22.684Z,15.70
2023-05-24T03:19:49.406Z,16.97
2023-05-24T03:22:16.129Z,14.50
2023-05-24T03:24:42.839Z,15.65
2023-05-24T03:27:09.610Z,16.73
2023-05-24T03:29:36.371Z,13.98
2023-05-24T03:32:03.151Z,15.27
2023-05-24T03:34:30.385Z,16.42
2023-05-24T03:36:57.233Z,16.13
2023-05-24T03:39:23.932Z,18.33
2023-05-24T03:41:50.743Z,16.33
2023-05-24T03:44:17.487Z,14.10
2023-05-24T03:46:44.226Z,14.52
2023-05-24T03:49:10.940Z,13.82
2023-05-24T03:51:37.688Z,15.45
2023-05-24T03:54:04.444Z,12.13
2023-05-24T03:56:31.190Z,13.53
2023-05-24T03:59:00.752Z,12.98
2023-05-24T04:01:33.803Z,11.70
2023-05-24T04:04:02.103Z,13.05
2023-05-24T04:06:29.802Z,12.25
2023-05-24T04:08:57.505Z,13.10
2023-05-24T04:11:24.292Z,14.02
2023-05-24T04:13:51.471Z,15.75
2023-05-24T04:16:18.283Z,10.98
2023-05-24T04:18:45.621Z,12.30
2023-05-24T04:21:12.443Z,11.57
2023-05-24T04:23:39.136Z,12.50
2023-05-24T04:26:06.119Z,11.68
2023-05-24T04:28:33.289Z,10.27
2023-05-24T04:31:00.269Z,11.68
2023-05-24T04:33:27.774Z,11.80
2023-05-24T04:35:54.515Z,12.65
2023-05-24T04:38:22.125Z,12.15
2023-05-24T04:40:49.056Z,14.00
2023-05-24T04:43:15.846Z,11.70
2023-05-24T04:45:42.586Z,10.33
2023-05-24T04:48:09.779Z,13.20
2023-05-24T04:50:37.742Z,10.43
2023-05-24T04:53:04.869Z,12.88
2023-05-24T04:55:32.639Z,14.68
2023-05-24T04:57:59.460Z,12.50
2023-05-24T05:00:26.221Z,14.13
2023-05-24T05:02:53.007Z,13.43
2023-05-24T05:05:20.373Z,14.65
2023-05-24T05:07:47.253Z,14.05
2023-05-24T05:10:13.975Z,14.10
2023-05-24T05:12:40.709Z,14.98
2023-05-24T05:15:08.320Z,14.60
2023-05-24T05:17:35.115Z,14.32
2023-05-24T05:20:02.104Z,11.10
2023-05-24T05:22:30.670Z,13.57
2023-05-24T05:24:58.019Z,13.82
2023-05-24T05:27:24.716Z,10.32
2023-05-24T05:29:51.556Z,12.60
2023-05-24T05:32:18.312Z,13.45
2023-05-24T05:34:45.282Z,12.97
2023-05-24T05:37:12.052Z,11.25
2023-05-24T05:39:38.771Z,10.20
2023-05-24T05:42:06.265Z,12.13
2023-05-24T05:44:33.087Z,15.70
2023-05-24T05:46:59.808Z,11.90
2023-05-24T05:49:26.551Z,14.20
2023-05-24T05:51:54.706Z,15.40
2023-05-24T05:54:21.536Z,12.50
2023-05-24T05:56:48.429Z,12.70
2023-05-24T05:59:16.011Z,12.87
2023-05-24T06:01:43.468Z,15.35
2023-05-24T06:04:10.724Z,15.65
2023-05-24T06:06:37.550Z,13.30
2023-05-24T06:09:04.243Z,12.50
2023-05-24T06:11:30.985Z,13.70
2023-05-24T06:13:57.780Z,14.10
2023-05-24T06:16:24.608Z,15.50
2023-05-24T06:19:04.509Z,12.77
2023-05-24T06:21:32.926Z,14.13
2023-05-24T06:23:59.878Z,14.40
2023-05-24T06:26:27.191Z,12.43
2023-05-24T06:28:54.301Z,11.55
2023-05-24T06:31:21.389Z,14.68
2023-05-24T06:34:02.768Z,11.43
2023-05-24T06:36:31.052Z,11.60
2023-05-24T06:38:57.818Z,11.35
2023-05-24T06:41:24.538Z,11.32
2023-05-24T06:43:51.233Z,11.57
2023-05-24T06:46:18.040Z,12.07
2023-05-24T06:48:44.995Z,10.80
2023-05-24T06:51:12.015Z,13.98
2023-05-24T06:53:38.720Z,10.98
2023-05-24T06:56:05.779Z,11.05
2023-05-24T06:58:32.485Z,9.35
2023-05-24T07:00:59.319Z,9.30
2023-05-24T07:03:26.449Z,13.32
2023-05-24T07:05:53.155Z,10.15
2023-05-24T07:08:19.952Z,9.77
2023-05-24T07:10:46.668Z,11.73
2023-05-24T07:13:13.674Z,13.50
2023-05-24T07:15:41.759Z,12.27
2023-05-24T07:18:08.597Z,9.90
2023-05-24T07:20:35.505Z,16.88
2023-05-24T07:23:03.839Z,10.07
2023-05-24T07:25:31.480Z,9.67
2023-05-24T07:27:58.412Z,10.10
2023-05-24T07:32:57.830Z,15.70
2023-05-24T07:35:24.946Z,9.10
2023-05-24T07:37:51.813Z,9.83
2023-05-24T07:40:19.038Z,12.98
2023-05-24T07:42:47.530Z,11.00
2023-05-24T07:45:14.991Z,11.82
2023-05-24T07:47:41.892Z,8.88
2023-05-24T07:50:09.172Z,12.27
2023-05-24T07:52:35.930Z,8.88
2023-05-24T07:55:02.660Z,9.13
2023-05-24T07:57:29.498Z,14.88
2023-05-24T07:59:56.312Z,11.18
2023-05-24T08:02:23.123Z,8.70
2023-05-24T08:04:49.912Z,9.48
2023-05-24T08:07:18.057Z,13.25
2023-05-24T08:09:44.953Z,8.25
2023-05-24T08:12:11.616Z,9.10
2023-05-24T08:14:38.298Z,9.20
2023-05-24T08:17:04.986Z,9.50
2023-05-24T08:19:35.861Z,8.77
2023-05-24T08:22:05.476Z,14.20
2023-05-24T08:24:32.528Z,10.95
2023-05-24T08:26:59.345Z,12.40
2023-05-24T08:29:26.028Z,11.05
2023-05-24T08:31:52.818Z,11.57
2023-05-24T08:34:19.681Z,11.80
2023-05-24T08:36:46.622Z,12.00
2023-05-24T08:39:13.459Z,10.20
2023-05-24T08:41:41.555Z,10.50
2023-05-24T08:44:08.302Z,9.23
2023-05-24T08:46:35.663Z,12.45
2023-05-24T08:49:05.612Z,14.65
2023-05-24T08:51:32.505Z,11.27
2023-05-24T08:53:59.681Z,12.07
2023-05-24T08:56:26.999Z,12.25
2023-05-24T08:58:56.744Z,11.07
2023-05-24T09:01:28.950Z,11.80
2023-05-24T09:03:57.363Z,13.53
2023-05-24T09:06:25.418Z,10.73
2023-05-24T09:08:53.941Z,12.63
2023-05-24T09:11:22.991Z,14.50
2023-05-24T09:13:49.777Z,12.23
2023-05-24T09:16:16.794Z,12.47
2023-05-24T09:18:43.566Z,15.57
2023-05-24T09:21:13.506Z,12.82
2023-05-24T09:23:41.180Z,11.95
2023-05-24T09:26:09.425Z,14.00
2023-05-24T09:28:36.746Z,8.73
2023-05-24T09:31:07.306Z,8.00
2023-05-24T09:33:35.258Z,10.02
2023-05-24T09:36:03.385Z,8.85
2023-05-24T09:38:30.203Z,9.13
2023-05-24T09:41:11.042Z,11.30
2023-05-24T09:43:47.810Z,16.50
2023-05-24T09:46:21.727Z,16.08
2023-05-24T09:49:03.713Z,14.18
2023-05-24T09:51:31.070Z,10.90
2023-05-24T09:53:58.340Z,10.10
2023-05-24T09:56:25.110Z,15.30
2023-05-24T09:58:51.844Z,12.68
2023-05-24T10:01:19.196Z,10.63
2023-05-24T10:03:59.358Z,8.65
2023-05-24T10:06:26.259Z,11.70
2023-05-24T10:08:54.475Z,10.32
2023-05-24T10:11:21.342Z,12.75
2023-05-24T10:13:48.671Z,12.77
2023-05-24T10:16:18.505Z,10.60
2023-05-24T10:18:45.548Z,11.00
2023-05-24T10:21:12.332Z,9.63
2023-05-24T10:23:39.402Z,12.70
2023-05-24T10:26:07.946Z,10.73
2023-05-24T10:28:43.528Z,9.82
2023-05-24T10:31:18.529Z,9.13
2023-05-24T10:33:45.456Z,8.82
2023-05-24T10:36:13.955Z,6.93
2023-05-24T10:38:40.826Z,9.48
2023-05-24T10:41:08.263Z,11.23
2023-05-24T10:43:36.221Z,10.63
2023-05-24T10:46:04.669Z,10.00
2023-05-24T10:48:37.165Z,8.88
2023-05-24T10:51:40.896Z,14.57
2023-05-24T10:54:18.028Z,13.32
2023-05-24T10:56:46.942Z,10.13
2023-05-24T10:59:37.953Z,11.98
2023-05-24T11:02:09.620Z,10.65
2023-05-24T11:04:43.414Z,9.90
2023-05-24T11:07:11.550Z,9.98
2023-05-24T11:09:45.961Z,10.07
2023-05-24T11:12:17.788Z,9.63
2023-05-24T11:14:53.091Z,9.07
2023-05-24T11:17:22.435Z,11.13
2023-05-24T11:19:54.163Z,11.38
2023-05-24T11:22:22.191Z,12.73
2023-05-24T11:24:48.986Z,10.50
2023-05-24T11:27:15.804Z,11.07
2023-05-24T11:29:43.575Z,12.23
2023-05-24T11:32:10.663Z,8.98
2023-05-24T11:34:37.969Z,9.60
2023-05-24T11:37:06.272Z,9.20
2023-05-24T11:39:34.351Z,10.27
2023-05-24T11:42:02.529Z,8.93
2023-05-24T11:44:31.632Z,10.27
2023-05-24T11:47:02.377Z,11.70
2023-05-24T11:49:29.164Z,9.02
2023-05-24T11:51:57.165Z,12.55
2023-05-24T11:54:24.701Z,9.38
2023-05-24T11:56:53.215Z,9.50
2023-05-24T11:59:23.636Z,9.20
2023-05-24T12:01:56.759Z,9.93
2023-05-24T12:04:26.836Z,10.68
2023-05-24T12:06:54.417Z,10.30
2023-05-24T12:09:21.257Z,10.52
2023-05-24T12:11:48.597Z,10.77
2023-05-24T12:14:16.292Z,11.32
2023-05-24T12:16:43.545Z,8.60
2023-05-24T12:21:58.977Z,11.07
2023-05-24T12:24:26.243Z,9.93
2023-05-24T12:26:53.668Z,9.80
2023-05-24T12:29:20.462Z,8.27
2023-05-24T12:31:50.459Z,10.70
2023-05-24T12:34:20.307Z,10.13
2023-05-24T12:36:47.753Z,8.23
2023-05-24T12:39:21.560Z,9.77
2023-05-24T12:41:54.955Z,11.18
2023-05-24T12:44:25.094Z,13.38
2023-05-24T12:46:55.958Z,10.55
2023-05-24T12:49:26.045Z,9.37
2023-05-24T12:51:54.243Z,10.25
2023-05-24T12:54:23.483Z,10.32
2023-05-24T12:56:52.875Z,12.40
2023-05-24T12:59:21.118Z,8.85
2023-05-24T13:01:52.012Z,12.47
2023-05-24T13:04:19.585Z,11.18
2023-05-24T13:06:46.351Z,13.13
2023-05-24T13:09:14.148Z,15.55
2023-05-24T13:11:40.947Z,10.07
2023-05-24T13:14:07.745Z,8.87
2023-05-24T13:16:35.536Z,11.65
2023-05-24T13:19:02.370Z,11.93
2023-05-24T13:21:29.439Z,10.02
2023-05-24T13:23:56.214Z,9.73
2023-05-24T13:26:24.449Z,10.43
2023-05-24T13:29:21.828Z,13.25
2023-05-24T13:31:38.454Z,11.43
2023-05-24T13:34:05.789Z,10.45
2023-05-24T13:36:32.786Z,13.15
2023-05-24T13:41:30.675Z,8.50
2023-05-24T13:43:57.710Z,11.50
2023-05-24T13:46:24.571Z,11.50
2023-05-24T13:48:51.544Z,11.20
2023-05-24T13:51:19.787Z,11.70
2023-05-24T13:53:47.935Z,11.20
2023-05-24T13:56:15.838Z,10.32
2023-05-24T13:58:42.894Z,9.55
2023-05-24T14:01:09.728Z,11.43
2023-05-24T14:03:36.587Z,11.80
2023-05-24T14:06:03.442Z,10.65
2023-05-24T14:08:30.186Z,14.57
2023-05-24T14:10:57.122Z,10.40
2023-05-24T14:14:16.659Z,9.63
2023-05-24T14:16:10.594Z,9.97
2023-05-24T14:18:37.920Z,9.55
2023-05-24T14:21:04.653Z,9.55
2023-05-24T14:23:32.049Z,9.57
2023-05-24T14:25:59.333Z,9.07
2023-05-24T14:28:26.422Z,14.47
2023-05-24T14:30:53.188Z,10.70
2023-05-24T14:33:19.971Z,8.65
2023-05-24T14:35:46.957Z,11.27
2023-05-24T14:38:13.863Z,9.45
2023-05-24T14:40:41.045Z,12.93
2023-05-24T14:43:10.474Z,10.93
2023-05-24T14:45:38.673Z,12.18
2023-05-24T14:48:05.862Z,9.43
2023-05-24T14:50:32.721Z,10.18
2023-05-24T14:53:00.532Z,12.77
2023-05-24T14:55:27.261Z,11.27
2023-05-24T14:57:54.008Z,10.60
2023-05-24T15:00:22.782Z,10.13
2023-05-24T15:02:50.798Z,10.23
2023-05-24T15:05:17.559Z,10.60
2023-05-24T15:07:44.337Z,11.63
2023-05-24T15:10:11.823Z,10.07
2023-05-24T15:12:38.585Z,13.30
2023-05-24T15:15:06.877Z,12.20
2023-05-24T15:17:33.830Z,29.03
2023-05-24T15:20:00.769Z,11.90
2023-05-24T15:22:27.757Z,9.32
2023-05-24T15:24:54.519Z,10.23
2023-05-24T15:27:21.416Z,8.85
2023-05-24T15:29:48.417Z,9.33
2023-05-24T15:32:15.199Z,11.13
2023-05-24T15:34:41.916Z,9.63
2023-05-24T15:37:08.680Z,26.90
2023-05-24T15:39:35.477Z,12.45
2023-05-24T15:42:02.724Z,12.57
2023-05-24T15:44:29.584Z,10.27
2023-05-24T15:46:56.512Z,9.25
2023-05-24T15:49:23.413Z,13.85
2023-05-24T15:55:57.629Z,12.10
2023-05-24T15:58:24.337Z,12.40
2023-05-24T16:00:52.829Z,13.27
2023-05-24T16:03:20.103Z,10.23
2023-05-24T16:05:49.447Z,9.95
2023-05-24T16:08:17.061Z,13.00
2023-05-24T16:10:44.501Z,12.00
2023-05-24T16:13:12.920Z,11.27
2023-05-24T16:15:41.791Z,13.35
2023-05-24T16:18:08.738Z,12.90
2023-05-24T16:20:36.509Z,13.80
2023-05-24T16:23:03.768Z,14.30
2023-05-24T16:25:30.548Z,14.95
2023-05-24T16:27:57.281Z,10.48
2023-05-24T16:30:24.215Z,10.68
2023-05-24T16:32:51.092Z,12.73
2023-05-24T16:35:17.852Z,11.90
2023-05-24T16:37:44.702Z,12.23
2023-05-24T16:40:12.275Z,8.95
2023-05-24T16:42:39.185Z,11.57
2023-05-24T16:45:06.540Z,9.07
2023-05-24T16:50:20.091Z,15.90
2023-05-24T16:52:47.357Z,12.73
2023-05-24T16:55:14.863Z,10.60
2023-05-24T16:57:42.084Z,12.27
2023-05-24T17:00:09.793Z,10.00
2023-05-24T17:02:36.653Z,10.75
2023-05-24T17:05:03.515Z,11.27
2023-05-24T17:07:30.550Z,13.00
2023-05-24T17:09:57.376Z,11.68
2023-05-24T17:12:24.134Z,9.50
2023-05-24T17:14:50.946Z,11.93
2023-05-24T17:17:17.776Z,10.57
2023-05-24T17:19:44.532Z,9.63
2023-05-24T17:22:11.426Z,11.77
2023-05-24T17:24:38.232Z,12.60
2023-05-24T17:27:05.260Z,12.38
2023-05-24T17:29:34.921Z,13.50
2023-05-24T17:32:01.851Z,11.52
2023-05-24T17:34:28.670Z,11.65
2023-05-24T17:36:55.429Z,13.13
2023-05-24T17:39:23.836Z,12.68
2023-05-24T17:41:50.691Z,13.57
2023-05-24T17:44:17.602Z,12.32
2023-05-24T17:46:44.638Z,11.30
2023-05-24T17:49:14.875Z,19.63
2023-05-24T17:51:42.085Z,20.10
2023-05-24T17:54:08.824Z,20.90
2023-05-24T17:56:35.594Z,35.00
2023-05-24T17:59:02.361Z,24.70
2023-05-24T18:01:29.282Z,21.63
2023-05-24T18:03:56.085Z,17.98
2023-05-24T18:06:22.820Z,19.48
2023-05-24T18:08:49.633Z,15.75
2023-05-24T18:11:16.428Z,16.50
2023-05-24T18:13:43.257Z,14.93
2023-05-24T18:16:10.790Z,13.57
2023-05-24T18:18:41.063Z,18.75
2023-05-24T18:21:09.575Z,13.30
2023-05-24T18:23:39.564Z,13.93
2023-05-24T18:26:07.812Z,15.37
2023-05-24T18:28:38.191Z,15.65
2023-05-24T18:31:08.417Z,15.85
2023-05-24T18:33:35.495Z,14.05
2023-05-24T18:36:04.615Z,14.75
2023-05-24T18:38:33.661Z,12.27
2023-05-24T18:41:00.580Z,12.82
2023-05-24T18:43:27.380Z,15.32
2023-05-24T18:45:54.185Z,14.85
2023-05-24T18:48:21.271Z,14.05
2023-05-24T18:50:48.490Z,15.80
2023-05-24T18:53:15.307Z,14.43
2023-05-24T18:55:42.178Z,13.93
2023-05-24T18:58:09.298Z,14.40
2023-05-24T19:00:36.367Z,14.32
2023-05-24T19:03:03.273Z,17.90
2023-05-24T19:05:30.050Z,16.17
2023-05-24T19:07:57.576Z,20.02
2023-05-24T19:10:24.369Z,21.10
2023-05-24T19:12:51.666Z,18.67
2023-05-24T19:15:18.686Z,16.53
2023-05-24T19:17:45.647Z,14.05
2023-05-24T19:20:12.523Z,16.13
2023-05-24T19:22:39.316Z,14.75
2023-05-24T19:25:06.616Z,18.05
2023-05-24T19:27:34.939Z,17.73
2023-05-24T19:30:03.193Z,17.98
2023-05-24T19:32:29.972Z,14.25
2023-05-24T19:34:56.995Z,15.75
2023-05-24T19:37:23.782Z,13.73
2023-05-24T19:39:51.483Z,17.97
2023-05-24T19:42:18.240Z,15.02
2023-05-24T19:44:45.288Z,13.50
2023-05-24T19:47:12.046Z,12.68
2023-05-24T19:49:38.910Z,13.27
2023-05-24T19:52:05.815Z,14.87
2023-05-24T19:54:32.592Z,15.35
2023-05-24T19:57:01.702Z,12.38
2023-05-24T19:59:28.471Z,14.32
2023-05-24T20:01:55.338Z,13.85
2023-05-24T20:04:22.235Z,13.07
2023-05-24T20:06:48.985Z,14.07
2023-05-24T20:09:18.736Z,15.63
2023-05-24T20:11:48.634Z,12.60
2023-05-24T20:14:15.365Z,12.95
2023-05-24T20:16:42.263Z,12.53
2023-05-24T20:19:09.097Z,12.38
2023-05-24T20:21:36.693Z,12.18
2023-05-24T20:24:03.580Z,15.32
2023-05-24T20:26:30.360Z,11.68
2023-05-24T20:28:57.075Z,12.77
2023-05-24T20:31:23.824Z,12.07
2023-05-24T20:33:51.668Z,13.70
2023-05-24T20:36:18.584Z,12.52
2023-05-24T20:38:45.566Z,12.88
2023-05-24T20:41:12.422Z,15.57
2023-05-24T20:43:39.325Z,12.20
2023-05-24T20:46:06.211Z,12.52
2023-05-24T20:48:33.107Z,15.30
2023-05-24T20:50:59.967Z,13.23
2023-05-24T20:53:26.821Z,12.60
2023-05-24T20:55:53.760Z,12.00
2023-05-24T20:58:20.845Z,12.35
2023-05-24T21:00:47.763Z,12.68
2023-05-24T21:03:14.814Z,14.57
2023-05-24T21:05:41.887Z,17.87
2023-05-24T21:08:08.779Z,14.60
2023-05-24T21:10:35.754Z,15.68
2023-05-24T21:13:02.640Z,15.88
2023-05-24T21:15:29.575Z,14.30
2023-05-24T21:17:56.404Z,11.93
2023-05-24T21:20:23.656Z,13.20
2023-05-24T21:22:50.636Z,13.38
2023-05-24T21:25:17.787Z,12.40
2023-05-24T21:27:44.651Z,14.15
2023-05-24T21:30:12.318Z,13.43
2023-05-24T21:32:39.409Z,12.40
2023-05-24T21:35:06.989Z,13.88
2023-05-24T21:37:33.814Z,15.10
2023-05-24T21:40:00.619Z,13.25
2023-05-24T21:42:27.509Z,12.60
2023-05-24T21:44:54.359Z,13.98
2023-05-24T21:47:21.277Z,12.88
2023-05-24T21:49:48.135Z,15.27
2023-05-24T21:52:14.981Z,14.90
2023-05-24T21:54:41.829Z,14.50
2023-05-24T21:57:08.727Z,13.88
2023-05-24T21:59:35.666Z,14.85
2023-05-24T22:02:02.701Z,14.63
2023-05-24T22:04:29.668Z,12.23
2023-05-24T22:06:56.508Z,13.03
2023-05-24T22:09:23.293Z,13.43
2023-05-24T22:11:50.072Z,17.15
2023-05-24T22:14:16.927Z,15.23
2023-05-24T22:16:43.863Z,12.93
2023-05-24T22:19:16.472Z,13.47
2023-05-24T22:21:43.775Z,14.20
2023-05-24T22:24:10.847Z,15.23
2023-05-24T22:26:38.352Z,14.70
2023-05-24T22:29:05.265Z,15.50
2023-05-24T22:31:33.632Z,14.43
2023-05-24T22:34:03.524Z,14.05
2023-05-24T22:36:34.171Z,18.30
2023-05-24T22:39:01.719Z,15.60
2023-05-24T22:41:28.652Z,17.75
2023-05-24T22:43:56.401Z,16.87
2023-05-24T22:46:23.491Z,14.00
2023-05-24T22:48:53.341Z,15.38
2023-05-24T22:51:20.476Z,15.65
2023-05-24T22:53:47.932Z,14.27
2023-05-24T22:56:14.858Z,14.13
2023-05-24T22:58:41.678Z,16.52
2023-05-24T23:01:08.487Z,16.50
2023-05-24T23:03:35.495Z,16.63
2023-05-24T23:06:04.658Z,14.70
2023-05-24T23:08:32.257Z,18.17
2023-05-24T23:11:10.258Z,15.13
2023-05-24T23:13:37.659Z,18.40
2023-05-24T23:16:05.613Z,18.20
2023-05-24T23:18:33.008Z,20.58
2023-05-24T23:21:01.012Z,17.30
2023-05-24T23:23:27.825Z,18.73
2023-05-24T23:25:54.637Z,18.77
2023-05-24T23:28:21.434Z,16.27
2023-05-24T23:30:48.322Z,18.20
2023-05-24T23:33:15.186Z,20.30
2023-05-24T23:35:42.162Z,18.35
2023-05-24T23:38:09.148Z,17.08
2023-05-24T23:40:36.703Z,18.85
2023-05-24T23:43:04.177Z,19.85
2023-05-24T23:45:31.119Z,22.17
2023-05-24T23:47:58.349Z,20.77
2023-05-24T23:50:25.509Z,19.73
2023-05-24T23:52:52.369Z,21.48
2023-05-24T23:55:19.128Z,23.00
2023-05-24T23:57:46.004Z,21.33
